DLH545 EDDF-EGLL
Flight info
| Callsign | DLH545 |
|---|---|
| Flight time | 1h 32m |
| Altitude | 40000 |
| Route | OBOKA3W/25C OBOKA Z29 TORNU DCT ABNED L980 LOGAN |
| Aircraft | A343/H-SDE2E3FGHIJ4J5M1RWXY/LB1D1 |
Departure
| Time | 2026-05-04 19:56 |
|---|---|
| Airport | Frankfurt Main Airport (EDDF) |
Arrival
| Time | 2026-05-04 21:29 |
|---|---|
| Airport | London Heathrow Airport (EGLL) |
| Time | Latitude | Longitude | Altitude | Speed | Heading |
|---|---|---|---|---|---|
| 2026-05-04 19:43 | 50.04327 | 8.55939 | 363 ft | 0 kts | 160° |
| 2026-05-04 19:43 | 50.04324 | 8.55941 | 368 ft | 3 kts | 161° |
| 2026-05-04 19:44 | 50.04278 | 8.55947 | 366 ft | 10 kts | 188° |
| 2026-05-04 19:44 | 50.04206 | 8.55923 | 367 ft | 0 kts | 181° |
| 2026-05-04 19:44 | 50.04204 | 8.55923 | 367 ft | 3 kts | 181° |
| 2026-05-04 19:45 | 50.04154 | 8.55938 | 367 ft | 9 kts | 161° |
| 2026-05-04 19:45 | 50.04150 | 8.55941 | 368 ft | 0 kts | 161° |
| 2026-05-04 19:47 | 50.04139 | 8.55947 | 365 ft | 6 kts | 161° |
| 2026-05-04 19:47 | 50.04114 | 8.55962 | 368 ft | 5 kts | 155° |
| 2026-05-04 19:48 | 50.04084 | 8.56029 | 368 ft | 10 kts | 102° |
| 2026-05-04 19:48 | 50.04095 | 8.56144 | 365 ft | 12 kts | 73° |
| 2026-05-04 19:48 | 50.04128 | 8.56282 | 368 ft | 14 kts | 69° |
| 2026-05-04 19:48 | 50.04163 | 8.56434 | 368 ft | 15 kts | 70° |
| 2026-05-04 19:49 | 50.04203 | 8.56597 | 366 ft | 17 kts | 67° |
| 2026-05-04 19:49 | 50.04247 | 8.56781 | 371 ft | 19 kts | 70° |
| 2026-05-04 19:49 | 50.04295 | 8.56984 | 368 ft | 21 kts | 70° |
| 2026-05-04 19:49 | 50.04336 | 8.57154 | 367 ft | 16 kts | 70° |
| 2026-05-04 19:50 | 50.04377 | 8.57329 | 368 ft | 18 kts | 70° |
| 2026-05-04 19:50 | 50.04427 | 8.57539 | 363 ft | 22 kts | 70° |
| 2026-05-04 19:50 | 50.04481 | 8.57767 | 367 ft | 23 kts | 70° |
| 2026-05-04 19:50 | 50.04538 | 8.58002 | 367 ft | 23 kts | 69° |
| 2026-05-04 19:51 | 50.04595 | 8.58243 | 368 ft | 24 kts | 70° |
| 2026-05-04 19:51 | 50.04640 | 8.58435 | 365 ft | 11 kts | 71° |
| 2026-05-04 19:51 | 50.04635 | 8.58539 | 366 ft | 9 kts | 124° |
| 2026-05-04 19:51 | 50.04600 | 8.58580 | 367 ft | 0 kts | 155° |
| 2026-05-04 19:53 | 50.04599 | 8.58581 | 367 ft | 1 kts | 156° |
| 2026-05-04 19:53 | 50.04552 | 8.58611 | 371 ft | 10 kts | 159° |
| 2026-05-04 19:53 | 50.04505 | 8.58619 | 372 ft | 3 kts | 207° |
| 2026-05-04 19:54 | 50.04487 | 8.58578 | 373 ft | 8 kts | 243° |
| 2026-05-04 19:54 | 50.04485 | 8.58570 | 373 ft | 0 kts | 244° |
| 2026-05-04 19:56 | 50.04433 | 8.58381 | 371 ft | 58 kts | 248° |
| 2026-05-04 19:56 | 50.04190 | 8.57341 | 372 ft | 135 kts | 249° |
| 2026-05-04 19:56 | 50.03822 | 8.55774 | 551 ft | 166 kts | 251° |
| 2026-05-04 19:56 | 50.03434 | 8.54125 | 1296 ft | 164 kts | 251° |
| 2026-05-04 19:57 | 50.03029 | 8.52440 | 1960 ft | 172 kts | 251° |
| 2026-05-04 19:57 | 50.02537 | 8.50641 | 2437 ft | 191 kts | 242° |
| 2026-05-04 19:57 | 50.01666 | 8.49025 | 3076 ft | 200 kts | 219° |
| 2026-05-04 19:57 | 50.00422 | 8.48068 | 3841 ft | 201 kts | 195° |
| 2026-05-04 19:58 | 49.99040 | 8.47678 | 4615 ft | 203 kts | 187° |
| 2026-05-04 19:58 | 49.97638 | 8.47393 | 5372 ft | 204 kts | 187° |
| 2026-05-04 19:58 | 49.96213 | 8.47057 | 6121 ft | 212 kts | 192° |
| 2026-05-04 19:58 | 49.94750 | 8.46467 | 6975 ft | 223 kts | 196° |
| 2026-05-04 19:59 | 49.93230 | 8.45770 | 7858 ft | 232 kts | 197° |
| 2026-05-04 19:59 | 49.91748 | 8.44738 | 8831 ft | 237 kts | 214° |
| 2026-05-04 19:59 | 49.90613 | 8.42876 | 9861 ft | 241 kts | 234° |
| 2026-05-04 19:59 | 49.89723 | 8.40649 | 10786 ft | 245 kts | 238° |
| 2026-05-04 20:00 | 49.88916 | 8.38285 | 11656 ft | 252 kts | 246° |
| 2026-05-04 20:00 | 49.88564 | 8.35575 | 12433 ft | 266 kts | 266° |
| 2026-05-04 20:00 | 49.88649 | 8.32578 | 12885 ft | 290 kts | 272° |
| 2026-05-04 20:00 | 49.88855 | 8.29316 | 12985 ft | 322 kts | 274° |
| 2026-05-04 20:01 | 49.89485 | 8.25833 | 12980 ft | 347 kts | 294° |
| 2026-05-04 20:01 | 49.90805 | 8.22680 | 13065 ft | 350 kts | 303° |
| 2026-05-04 20:01 | 49.92284 | 8.19652 | 13540 ft | 354 kts | 304° |
| 2026-05-04 20:01 | 49.93820 | 8.16634 | 14317 ft | 360 kts | 308° |
| 2026-05-04 20:02 | 49.95627 | 8.13912 | 15166 ft | 364 kts | 315° |
| 2026-05-04 20:02 | 49.97555 | 8.11335 | 15995 ft | 367 kts | 316° |
| 2026-05-04 20:02 | 49.99491 | 8.08766 | 16806 ft | 371 kts | 316° |
| 2026-05-04 20:02 | 50.01421 | 8.06198 | 17570 ft | 375 kts | 316° |
| 2026-05-04 20:03 | 50.03441 | 8.03508 | 18374 ft | 379 kts | 316° |
| 2026-05-04 20:03 | 50.05453 | 8.00821 | 19034 ft | 383 kts | 315° |
| 2026-05-04 20:03 | 50.07510 | 7.98065 | 19693 ft | 388 kts | 315° |
| 2026-05-04 20:03 | 50.09539 | 7.95341 | 20339 ft | 393 kts | 315° |
| 2026-05-04 20:04 | 50.11620 | 7.92544 | 20983 ft | 397 kts | 315° |
| 2026-05-04 20:04 | 50.13720 | 7.89716 | 21621 ft | 401 kts | 315° |
| 2026-05-04 20:04 | 50.15845 | 7.86852 | 22275 ft | 405 kts | 315° |
| 2026-05-04 20:04 | 50.17980 | 7.83972 | 22940 ft | 408 kts | 315° |
| 2026-05-04 20:05 | 50.20134 | 7.81061 | 23568 ft | 412 kts | 316° |
| 2026-05-04 20:05 | 50.22313 | 7.78114 | 23899 ft | 414 kts | 316° |
| 2026-05-04 20:05 | 50.24513 | 7.75239 | 23982 ft | 414 kts | 320° |
| 2026-05-04 20:05 | 50.26973 | 7.72849 | 23993 ft | 418 kts | 330° |
| 2026-05-04 20:06 | 50.29619 | 7.70934 | 23993 ft | 420 kts | 333° |
| 2026-05-04 20:06 | 50.32301 | 7.69109 | 24109 ft | 422 kts | 334° |
| 2026-05-04 20:06 | 50.35004 | 7.67273 | 24546 ft | 425 kts | 333° |
| 2026-05-04 20:06 | 50.37723 | 7.65422 | 25054 ft | 428 kts | 334° |
| 2026-05-04 20:07 | 50.40463 | 7.63548 | 25543 ft | 431 kts | 333° |
| 2026-05-04 20:07 | 50.43227 | 7.61647 | 25902 ft | 436 kts | 333° |
| 2026-05-04 20:07 | 50.46008 | 7.59734 | 25995 ft | 436 kts | 333° |
| 2026-05-04 20:07 | 50.48783 | 7.57822 | 26000 ft | 436 kts | 333° |
| 2026-05-04 20:08 | 50.51570 | 7.55898 | 26000 ft | 436 kts | 333° |
| 2026-05-04 20:08 | 50.54342 | 7.53968 | 25997 ft | 436 kts | 332° |
| 2026-05-04 20:08 | 50.57003 | 7.51713 | 26003 ft | 434 kts | 325° |
| 2026-05-04 20:08 | 50.59544 | 7.49179 | 25997 ft | 433 kts | 324° |
| 2026-05-04 20:09 | 50.62075 | 7.46587 | 26094 ft | 434 kts | 323° |
| 2026-05-04 20:09 | 50.64614 | 7.43977 | 26461 ft | 439 kts | 322° |
| 2026-05-04 20:09 | 50.67179 | 7.41340 | 26921 ft | 442 kts | 322° |
| 2026-05-04 20:09 | 50.69759 | 7.38685 | 27377 ft | 445 kts | 322° |
| 2026-05-04 20:10 | 50.72266 | 7.35819 | 27804 ft | 445 kts | 315° |
| 2026-05-04 20:10 | 50.74452 | 7.32398 | 28227 ft | 441 kts | 304° |
| 2026-05-04 20:10 | 50.76205 | 7.28463 | 28650 ft | 438 kts | 295° |
| 2026-05-04 20:10 | 50.77698 | 7.24271 | 29073 ft | 439 kts | 292° |
| 2026-05-04 20:11 | 50.79116 | 7.19990 | 29489 ft | 441 kts | 291° |
| 2026-05-04 20:11 | 50.80503 | 7.15655 | 29878 ft | 443 kts | 291° |
| 2026-05-04 20:11 | 50.81889 | 7.11279 | 30239 ft | 446 kts | 291° |
| 2026-05-04 20:11 | 50.83285 | 7.06882 | 30613 ft | 448 kts | 291° |
| 2026-05-04 20:12 | 50.84692 | 7.02476 | 31005 ft | 449 kts | 291° |
| 2026-05-04 20:12 | 50.86106 | 6.98065 | 31355 ft | 451 kts | 291° |
| 2026-05-04 20:12 | 50.87532 | 6.93637 | 31705 ft | 453 kts | 291° |
| 2026-05-04 20:12 | 50.88965 | 6.89195 | 32055 ft | 453 kts | 291° |
| 2026-05-04 20:13 | 50.89914 | 6.86247 | 32369 ft | 452 kts | 291° |
| 2026-05-04 20:13 | 50.91335 | 6.81827 | 32874 ft | 450 kts | 291° |
| 2026-05-04 20:13 | 50.92751 | 6.77414 | 33361 ft | 447 kts | 291° |
| 2026-05-04 20:13 | 50.94155 | 6.73028 | 33846 ft | 445 kts | 291° |
| 2026-05-04 20:14 | 50.95551 | 6.68653 | 34257 ft | 444 kts | 291° |
| 2026-05-04 20:14 | 50.96939 | 6.64296 | 34585 ft | 443 kts | 291° |
| 2026-05-04 20:14 | 50.98329 | 6.59921 | 34925 ft | 443 kts | 291° |
| 2026-05-04 20:14 | 50.99716 | 6.55547 | 35202 ft | 444 kts | 291° |
| 2026-05-04 20:15 | 51.01101 | 6.51173 | 35498 ft | 444 kts | 291° |
| 2026-05-04 20:15 | 51.02489 | 6.46784 | 35802 ft | 444 kts | 291° |
| 2026-05-04 20:15 | 51.03875 | 6.42396 | 36099 ft | 444 kts | 292° |
| 2026-05-04 20:15 | 51.05259 | 6.38005 | 36388 ft | 445 kts | 292° |
| 2026-05-04 20:16 | 51.06644 | 6.33605 | 36673 ft | 445 kts | 292° |
| 2026-05-04 20:16 | 51.08026 | 6.29207 | 36965 ft | 445 kts | 292° |
| 2026-05-04 20:16 | 51.09407 | 6.24803 | 37247 ft | 445 kts | 292° |
| 2026-05-04 20:16 | 51.10788 | 6.20389 | 37537 ft | 445 kts | 292° |
| 2026-05-04 20:17 | 51.12165 | 6.15981 | 37845 ft | 445 kts | 292° |
| 2026-05-04 20:17 | 51.13480 | 6.11529 | 38105 ft | 444 kts | 288° |
| 2026-05-04 20:17 | 51.14467 | 6.06894 | 38358 ft | 441 kts | 283° |
| 2026-05-04 20:17 | 51.15302 | 6.02207 | 38634 ft | 440 kts | 282° |
| 2026-05-04 20:18 | 51.16093 | 5.97493 | 38837 ft | 440 kts | 281° |
| 2026-05-04 20:18 | 51.16857 | 5.92773 | 39034 ft | 440 kts | 281° |
| 2026-05-04 20:18 | 51.17612 | 5.88038 | 39247 ft | 440 kts | 281° |
| 2026-05-04 20:18 | 51.18470 | 5.83348 | 39431 ft | 442 kts | 287° |
| 2026-05-04 20:19 | 51.19575 | 5.78766 | 39646 ft | 443 kts | 289° |
| 2026-05-04 20:19 | 51.20736 | 5.74208 | 39836 ft | 444 kts | 289° |
| 2026-05-04 20:19 | 51.21925 | 5.69662 | 39941 ft | 446 kts | 290° |
| 2026-05-04 20:20 | 51.24364 | 5.60446 | 39961 ft | 456 kts | 290° |
| 2026-05-04 20:20 | 51.26835 | 5.51079 | 39949 ft | 457 kts | 290° |
| 2026-05-04 20:21 | 51.29282 | 5.41736 | 39954 ft | 455 kts | 290° |
| 2026-05-04 20:21 | 51.32921 | 5.27724 | 39960 ft | 455 kts | 290° |
| 2026-05-04 20:22 | 51.35337 | 5.18367 | 39963 ft | 456 kts | 290° |
| 2026-05-04 20:22 | 51.37752 | 5.08977 | 39964 ft | 456 kts | 290° |
| 2026-05-04 20:23 | 51.40161 | 4.99575 | 39963 ft | 456 kts | 289° |
| 2026-05-04 20:23 | 51.42564 | 4.90158 | 39968 ft | 456 kts | 289° |
| 2026-05-04 20:24 | 51.44957 | 4.80741 | 39971 ft | 456 kts | 289° |
| 2026-05-04 20:24 | 51.47343 | 4.71308 | 39966 ft | 457 kts | 289° |
| 2026-05-04 20:25 | 51.49749 | 4.61754 | 39969 ft | 467 kts | 289° |
| 2026-05-04 20:25 | 51.52197 | 4.51986 | 39968 ft | 476 kts | 289° |
| 2026-05-04 20:26 | 51.54647 | 4.42186 | 39965 ft | 475 kts | 289° |
| 2026-05-04 20:26 | 51.57093 | 4.32358 | 39966 ft | 473 kts | 289° |
| 2026-05-04 20:27 | 51.59530 | 4.22515 | 39968 ft | 473 kts | 289° |
| 2026-05-04 20:27 | 51.61951 | 4.12693 | 39969 ft | 473 kts | 289° |
| 2026-05-04 20:28 | 51.64369 | 4.02837 | 39972 ft | 473 kts | 289° |
| 2026-05-04 20:28 | 51.66777 | 3.92976 | 39979 ft | 473 kts | 289° |
| 2026-05-04 20:29 | 51.69178 | 3.83099 | 39989 ft | 473 kts | 289° |
| 2026-05-04 20:29 | 51.71570 | 3.73220 | 39985 ft | 473 kts | 289° |
| 2026-05-04 20:30 | 51.73775 | 3.64070 | 39988 ft | 473 kts | 289° |
| 2026-05-04 20:52 | 51.75628 | 3.56337 | 40017 ft | 477 kts | 289° |
| 2026-05-04 20:52 | 51.78008 | 3.46387 | 39765 ft | 472 kts | 289° |
| 2026-05-04 20:53 | 51.79186 | 3.41452 | 39539 ft | 468 kts | 289° |
| 2026-05-04 20:53 | 51.80341 | 3.36603 | 39311 ft | 460 kts | 289° |
| 2026-05-04 20:53 | 51.81479 | 3.31810 | 39078 ft | 452 kts | 289° |
| 2026-05-04 20:53 | 51.82597 | 3.27096 | 38860 ft | 446 kts | 288° |
| 2026-05-04 20:54 | 51.83647 | 3.22403 | 38650 ft | 441 kts | 284° |
| 2026-05-04 20:54 | 51.84323 | 3.17617 | 38309 ft | 433 kts | 276° |
| 2026-05-04 20:54 | 51.84525 | 3.12800 | 37880 ft | 427 kts | 266° |
| 2026-05-04 20:54 | 51.84366 | 3.08037 | 37425 ft | 423 kts | 263° |
| 2026-05-04 20:55 | 51.84110 | 3.03380 | 36983 ft | 420 kts | 262° |
| 2026-05-04 20:55 | 51.83795 | 2.98618 | 36709 ft | 425 kts | 262° |
| 2026-05-04 20:55 | 51.83456 | 2.93816 | 36470 ft | 434 kts | 262° |
| 2026-05-04 20:55 | 51.83110 | 2.88953 | 36220 ft | 436 kts | 262° |
| 2026-05-04 20:56 | 51.82770 | 2.84074 | 35971 ft | 436 kts | 262° |
| 2026-05-04 20:56 | 51.82435 | 2.79203 | 35719 ft | 436 kts | 262° |
| 2026-05-04 20:56 | 51.82104 | 2.74333 | 35479 ft | 436 kts | 262° |
| 2026-05-04 20:56 | 51.81776 | 2.69463 | 35232 ft | 435 kts | 262° |
| 2026-05-04 20:57 | 51.81447 | 2.64602 | 34993 ft | 435 kts | 262° |
| 2026-05-04 20:57 | 51.81114 | 2.59742 | 34751 ft | 435 kts | 262° |
| 2026-05-04 20:57 | 51.80778 | 2.54891 | 34508 ft | 435 kts | 262° |
| 2026-05-04 20:57 | 51.80554 | 2.51686 | 34355 ft | 435 kts | 262° |
| 2026-05-04 20:58 | 51.80212 | 2.46821 | 34121 ft | 434 kts | 261° |
| 2026-05-04 20:58 | 51.79870 | 2.41981 | 33868 ft | 434 kts | 262° |
| 2026-05-04 20:58 | 51.79524 | 2.37116 | 33589 ft | 436 kts | 262° |
| 2026-05-04 20:58 | 51.79177 | 2.32248 | 33319 ft | 437 kts | 262° |
| 2026-05-04 20:59 | 51.78827 | 2.27369 | 32978 ft | 437 kts | 262° |
| 2026-05-04 20:59 | 51.78477 | 2.22498 | 32300 ft | 437 kts | 262° |
| 2026-05-04 20:59 | 51.78153 | 2.17618 | 31593 ft | 438 kts | 263° |
| 2026-05-04 20:59 | 51.77875 | 2.12714 | 30844 ft | 440 kts | 263° |
| 2026-05-04 21:00 | 51.77598 | 2.07827 | 30347 ft | 435 kts | 263° |
| 2026-05-04 21:00 | 51.77319 | 2.02991 | 29780 ft | 430 kts | 263° |
| 2026-05-04 21:00 | 51.77037 | 1.98211 | 29239 ft | 425 kts | 263° |
| 2026-05-04 21:00 | 51.76755 | 1.93484 | 28711 ft | 420 kts | 263° |
| 2026-05-04 21:01 | 51.76473 | 1.88816 | 28172 ft | 416 kts | 263° |
| 2026-05-04 21:01 | 51.76193 | 1.84204 | 27649 ft | 411 kts | 262° |
| 2026-05-04 21:01 | 51.75912 | 1.79631 | 27137 ft | 407 kts | 262° |
| 2026-05-04 21:01 | 51.75636 | 1.75161 | 26621 ft | 404 kts | 263° |
| 2026-05-04 21:02 | 51.75358 | 1.70678 | 26095 ft | 401 kts | 262° |
| 2026-05-04 21:02 | 51.75079 | 1.66228 | 25579 ft | 398 kts | 262° |
| 2026-05-04 21:02 | 51.74801 | 1.61797 | 25173 ft | 395 kts | 263° |
| 2026-05-04 21:02 | 51.74522 | 1.57357 | 25043 ft | 400 kts | 263° |
| 2026-05-04 21:03 | 51.74236 | 1.52885 | 25033 ft | 402 kts | 263° |
| 2026-05-04 21:03 | 51.73948 | 1.48407 | 25036 ft | 401 kts | 263° |
| 2026-05-04 21:03 | 51.73660 | 1.43930 | 25039 ft | 400 kts | 262° |
| 2026-05-04 21:03 | 51.73369 | 1.39458 | 25037 ft | 401 kts | 262° |
| 2026-05-04 21:04 | 51.73074 | 1.34979 | 25039 ft | 402 kts | 262° |
| 2026-05-04 21:04 | 51.72780 | 1.30499 | 24927 ft | 400 kts | 262° |
| 2026-05-04 21:04 | 51.72487 | 1.26054 | 24421 ft | 398 kts | 262° |
| 2026-05-04 21:04 | 51.72193 | 1.21628 | 23584 ft | 395 kts | 262° |
| 2026-05-04 21:05 | 51.71902 | 1.17264 | 22252 ft | 387 kts | 263° |
| 2026-05-04 21:05 | 51.71615 | 1.12991 | 20833 ft | 381 kts | 262° |
| 2026-05-04 21:05 | 51.71331 | 1.08769 | 19468 ft | 377 kts | 263° |
| 2026-05-04 21:05 | 51.71047 | 1.04596 | 18132 ft | 372 kts | 262° |
| 2026-05-04 21:06 | 51.70764 | 1.00467 | 16693 ft | 371 kts | 263° |
| 2026-05-04 21:06 | 51.70475 | 0.96266 | 15295 ft | 385 kts | 263° |
| 2026-05-04 21:06 | 51.70181 | 0.91966 | 13961 ft | 383 kts | 264° |
| 2026-05-04 21:06 | 51.69890 | 0.87775 | 12869 ft | 368 kts | 264° |
| 2026-05-04 21:07 | 51.69612 | 0.83805 | 12232 ft | 347 kts | 264° |
| 2026-05-04 21:07 | 51.69343 | 0.79977 | 11458 ft | 341 kts | 263° |
| 2026-05-04 21:07 | 51.69077 | 0.76217 | 10631 ft | 336 kts | 263° |
| 2026-05-04 21:07 | 51.68814 | 0.72499 | 9754 ft | 332 kts | 263° |
| 2026-05-04 21:08 | 51.68554 | 0.68846 | 8577 ft | 326 kts | 264° |
| 2026-05-04 21:08 | 51.68298 | 0.65197 | 7701 ft | 330 kts | 264° |
| 2026-05-04 21:08 | 51.68035 | 0.61544 | 7215 ft | 325 kts | 264° |
| 2026-05-04 21:08 | 51.67778 | 0.58008 | 7069 ft | 309 kts | 264° |
| 2026-05-04 21:09 | 51.67535 | 0.54669 | 7039 ft | 291 kts | 264° |
| 2026-05-04 21:09 | 51.67308 | 0.51560 | 6993 ft | 276 kts | 264° |
| 2026-05-04 21:09 | 51.67084 | 0.48494 | 6987 ft | 270 kts | 264° |
| 2026-05-04 21:09 | 51.66872 | 0.45545 | 6989 ft | 269 kts | 263° |
| 2026-05-04 21:10 | 51.66651 | 0.42551 | 6988 ft | 269 kts | 264° |
| 2026-05-04 21:10 | 51.66431 | 0.39568 | 6987 ft | 268 kts | 264° |
| 2026-05-04 21:10 | 51.66210 | 0.36594 | 6986 ft | 268 kts | 264° |
| 2026-05-04 21:10 | 51.65988 | 0.33604 | 6985 ft | 269 kts | 264° |
| 2026-05-04 21:11 | 51.65766 | 0.30616 | 6978 ft | 269 kts | 263° |
| 2026-05-04 21:11 | 51.65543 | 0.27637 | 6977 ft | 264 kts | 263° |
| 2026-05-04 21:11 | 51.65326 | 0.24751 | 6974 ft | 249 kts | 264° |
| 2026-05-04 21:11 | 51.65125 | 0.22082 | 6906 ft | 239 kts | 263° |
| 2026-05-04 21:12 | 51.64926 | 0.19454 | 6793 ft | 233 kts | 264° |
| 2026-05-04 21:12 | 51.64732 | 0.16885 | 6660 ft | 232 kts | 264° |
| 2026-05-04 21:12 | 51.64441 | 0.14318 | 6552 ft | 232 kts | 257° |
| 2026-05-04 21:12 | 51.64006 | 0.11818 | 6337 ft | 233 kts | 254° |
| 2026-05-04 21:13 | 51.63540 | 0.09313 | 6104 ft | 233 kts | 254° |
| 2026-05-04 21:13 | 51.63074 | 0.06817 | 5844 ft | 233 kts | 255° |
| 2026-05-04 21:13 | 51.62610 | 0.04318 | 5594 ft | 234 kts | 254° |
| 2026-05-04 21:13 | 51.62144 | 0.01817 | 5377 ft | 232 kts | 255° |
| 2026-05-04 21:14 | 51.61683 | -0.00668 | 5140 ft | 232 kts | 255° |
| 2026-05-04 21:14 | 51.61222 | -0.03149 | 4984 ft | 231 kts | 255° |
| 2026-05-04 21:14 | 51.60764 | -0.05619 | 4863 ft | 228 kts | 255° |
| 2026-05-04 21:14 | 51.60308 | -0.08081 | 4740 ft | 231 kts | 254° |
| 2026-05-04 21:15 | 51.59846 | -0.10565 | 4667 ft | 231 kts | 255° |
| 2026-05-04 21:15 | 51.59386 | -0.13041 | 4532 ft | 232 kts | 254° |
| 2026-05-04 21:15 | 51.58921 | -0.15535 | 4414 ft | 232 kts | 254° |
| 2026-05-04 21:15 | 51.58457 | -0.18019 | 4296 ft | 233 kts | 255° |
| 2026-05-04 21:16 | 51.57990 | -0.20520 | 4197 ft | 232 kts | 255° |
| 2026-05-04 21:16 | 51.57526 | -0.22999 | 4052 ft | 233 kts | 255° |
| 2026-05-04 21:16 | 51.57056 | -0.25508 | 3952 ft | 237 kts | 254° |
| 2026-05-04 21:16 | 51.56577 | -0.28060 | 3842 ft | 239 kts | 254° |
| 2026-05-04 21:17 | 51.56103 | -0.30586 | 3689 ft | 233 kts | 253° |
| 2026-05-04 21:17 | 51.55627 | -0.33105 | 3600 ft | 238 kts | 253° |
| 2026-05-04 21:17 | 51.55152 | -0.35629 | 3514 ft | 232 kts | 253° |
| 2026-05-04 21:17 | 51.54679 | -0.38136 | 3400 ft | 237 kts | 253° |
| 2026-05-04 21:18 | 51.54201 | -0.40666 | 3286 ft | 238 kts | 253° |
| 2026-05-04 21:18 | 51.53724 | -0.43187 | 3187 ft | 234 kts | 253° |
| 2026-05-04 21:18 | 51.53242 | -0.45731 | 3102 ft | 240 kts | 253° |
| 2026-05-04 21:18 | 51.52761 | -0.48265 | 2988 ft | 237 kts | 253° |
| 2026-05-04 21:19 | 51.52281 | -0.50792 | 2929 ft | 236 kts | 253° |
| 2026-05-04 21:19 | 51.51798 | -0.53335 | 2858 ft | 238 kts | 253° |
| 2026-05-04 21:19 | 51.51320 | -0.55845 | 2746 ft | 233 kts | 253° |
| 2026-05-04 21:19 | 51.50842 | -0.58348 | 2648 ft | 237 kts | 253° |
| 2026-05-04 21:20 | 51.50359 | -0.60879 | 2548 ft | 236 kts | 253° |
| 2026-05-04 21:20 | 51.49876 | -0.63403 | 2493 ft | 238 kts | 253° |
| 2026-05-04 21:20 | 51.49389 | -0.65948 | 2491 ft | 239 kts | 253° |
| 2026-05-04 21:20 | 51.48902 | -0.68483 | 2490 ft | 237 kts | 253° |
| 2026-05-04 21:21 | 51.48416 | -0.71015 | 2488 ft | 238 kts | 253° |
| 2026-05-04 21:21 | 51.47929 | -0.73549 | 2485 ft | 238 kts | 253° |
| 2026-05-04 21:21 | 51.47340 | -0.76017 | 2476 ft | 234 kts | 240° |
| 2026-05-04 21:21 | 51.46249 | -0.77802 | 2469 ft | 219 kts | 207° |
| 2026-05-04 21:22 | 51.44857 | -0.78394 | 2469 ft | 200 kts | 176° |
| 2026-05-04 21:22 | 51.43577 | -0.77915 | 2467 ft | 182 kts | 149° |
| 2026-05-04 21:22 | 51.42642 | -0.76725 | 2460 ft | 164 kts | 125° |
| 2026-05-04 21:22 | 51.42113 | -0.75168 | 2481 ft | 157 kts | 104° |
| 2026-05-04 21:23 | 51.41982 | -0.73562 | 2499 ft | 138 kts | 85° |
| 2026-05-04 21:23 | 51.42168 | -0.72146 | 2489 ft | 126 kts | 69° |
| 2026-05-04 21:23 | 51.42593 | -0.70927 | 2488 ft | 127 kts | 52° |
| 2026-05-04 21:23 | 51.43238 | -0.69949 | 2487 ft | 129 kts | 37° |
| 2026-05-04 21:24 | 51.44047 | -0.69329 | 2488 ft | 130 kts | 20° |
| 2026-05-04 21:24 | 51.44937 | -0.69065 | 2488 ft | 129 kts | 11° |
| 2026-05-04 21:24 | 51.45826 | -0.68876 | 2483 ft | 128 kts | 11° |
| 2026-05-04 21:24 | 51.46700 | -0.68632 | 2482 ft | 127 kts | 20° |
| 2026-05-04 21:25 | 51.47300 | -0.67657 | 2477 ft | 128 kts | 69° |
| 2026-05-04 21:25 | 51.47551 | -0.66288 | 2365 ft | 128 kts | 77° |
| 2026-05-04 21:25 | 51.47635 | -0.64868 | 2167 ft | 128 kts | 86° |
| 2026-05-04 21:25 | 51.47650 | -0.63447 | 1985 ft | 127 kts | 85° |
| 2026-05-04 21:26 | 51.47672 | -0.62050 | 1804 ft | 127 kts | 85° |
| 2026-05-04 21:26 | 51.47695 | -0.60620 | 1630 ft | 127 kts | 85° |
| 2026-05-04 21:26 | 51.47709 | -0.59229 | 1462 ft | 126 kts | 86° |
| 2026-05-04 21:26 | 51.47711 | -0.57807 | 1290 ft | 126 kts | 86° |
| 2026-05-04 21:27 | 51.47718 | -0.56407 | 1111 ft | 126 kts | 86° |
| 2026-05-04 21:27 | 51.47724 | -0.55020 | 947 ft | 127 kts | 85° |
| 2026-05-04 21:27 | 51.47731 | -0.53608 | 764 ft | 127 kts | 86° |
| 2026-05-04 21:27 | 51.47735 | -0.52206 | 553 ft | 125 kts | 85° |
| 2026-05-04 21:28 | 51.47731 | -0.50831 | 393 ft | 124 kts | 88° |
| 2026-05-04 21:28 | 51.47741 | -0.49445 | 244 ft | 125 kts | 85° |
| 2026-05-04 21:28 | 51.47751 | -0.48052 | 114 ft | 125 kts | 84° |
| 2026-05-04 21:28 | 51.47758 | -0.46827 | 96 ft | 87 kts | 90° |
| 2026-05-04 21:29 | 51.47759 | -0.46148 | 94 ft | 35 kts | 90° |
| 2026-05-04 21:29 | 51.47758 | -0.45902 | 92 ft | 24 kts | 90° |
| 2026-05-04 21:29 | 51.47755 | -0.45589 | 93 ft | 25 kts | 98° |
| 2026-05-04 21:29 | 51.47699 | -0.45485 | 95 ft | 11 kts | 159° |
| 2026-05-04 21:30 | 51.47652 | -0.45474 | 94 ft | 0 kts | 174° |
| 2026-05-04 21:30 | 51.47648 | -0.45474 | 94 ft | 0 kts | 176° |
| 2026-05-04 21:31 | 51.47635 | -0.45473 | 94 ft | 5 kts | 178° |
| 2026-05-04 21:31 | 51.47582 | -0.45470 | 91 ft | 9 kts | 178° |
| 2026-05-04 21:31 | 51.47524 | -0.45427 | 96 ft | 9 kts | 121° |
| 2026-05-04 21:32 | 51.47507 | -0.45326 | 94 ft | 9 kts | 90° |
| 2026-05-04 21:32 | 51.47508 | -0.45207 | 94 ft | 12 kts | 90° |
| 2026-05-04 21:32 | 51.47509 | -0.45064 | 94 ft | 14 kts | 90° |
| 2026-05-04 21:32 | 51.47509 | -0.44897 | 94 ft | 15 kts | 90° |
| 2026-05-04 21:33 | 51.47509 | -0.44719 | 95 ft | 17 kts | 89° |
| 2026-05-04 21:33 | 51.47484 | -0.44578 | 96 ft | 10 kts | 149° |
| 2026-05-04 21:33 | 51.47410 | -0.44565 | 93 ft | 13 kts | 178° |
| 2026-05-04 21:33 | 51.47288 | -0.44562 | 94 ft | 20 kts | 180° |
| 2026-05-04 21:34 | 51.47105 | -0.44560 | 93 ft | 33 kts | 179° |
| 2026-05-04 21:34 | 51.46875 | -0.44558 | 91 ft | 31 kts | 179° |
| 2026-05-04 21:34 | 51.46832 | -0.44557 | 91 ft | 0 kts | 180° |
| 2026-05-04 21:35 | 51.46831 | -0.44557 | 91 ft | 1 kts | 180° |
| 2026-05-04 21:36 | 51.46812 | -0.44558 | 91 ft | 4 kts | 183° |
| 2026-05-04 21:36 | 51.46787 | -0.44567 | 95 ft | 0 kts | 198° |
| 2026-05-04 21:36 | 51.46776 | -0.44576 | 94 ft | 5 kts | 209° |
| 2026-05-04 21:37 | 51.46754 | -0.44648 | 93 ft | 11 kts | 262° |
| 2026-05-04 21:37 | 51.46751 | -0.44782 | 91 ft | 7 kts | 269° |
| 2026-05-04 21:37 | 51.46754 | -0.44854 | 91 ft | 0 kts | 284° |
| 2026-05-04 21:37 | 51.46769 | -0.44871 | 96 ft | 4 kts | 336° |
| 2026-05-04 21:38 | 51.46803 | -0.44882 | 95 ft | 6 kts | 352° |
| 2026-05-04 21:38 | 51.46833 | -0.44884 | 91 ft | 0 kts | 0° |
| 2026-05-04 21:38 | 51.46836 | -0.44884 | 91 ft | 2 kts | 360° |
| 2026-05-04 21:39 | 51.46842 | -0.44884 | 91 ft | 0 kts | 360° |